Terminal Aerodrome Forecast
Issued by NWS Amarillo, TX

Home | Current Version | Previous Version | Text Only | Print | Product List | Glossary On
Versions: 1 2 3 4 5 6 7 8 9 10 11 12 13 14
000
FTUS44 KAMA 221700
TAFAMA
TAF
KAMA 221738Z 2218/2318 21015G21KT P6SM FEW120
     FM222000 19020G28KT P6SM BKN080
     FM230200 19016KT P6SM SCT070
     FM231500 21018G24KT P6SM BKN150=

USA.gov is the U.S. government's official web portal to all federal, state and local government web resources and services.